sensor_id;sensor_type;location;lat;lon;timestamp;temperature;humidity
68578;SHT31;61668;45.388;11.784;2023-04-30T00:02:25;14.99;80.51
68578;SHT31;61668;45.388;11.784;2023-04-30T00:04:51;14.98;80.50
68578;SHT31;61668;45.388;11.784;2023-04-30T00:07:16;14.97;80.49
68578;SHT31;61668;45.388;11.784;2023-04-30T00:09:42;14.97;80.56
68578;SHT31;61668;45.388;11.784;2023-04-30T00:12:08;14.97;80.62
68578;SHT31;61668;45.388;11.784;2023-04-30T00:14:33;14.95;80.69
68578;SHT31;61668;45.388;11.784;2023-04-30T00:16:59;14.96;80.60
68578;SHT31;61668;45.388;11.784;2023-04-30T00:19:25;14.95;80.57
68578;SHT31;61668;45.388;11.784;2023-04-30T00:21:50;14.96;80.50
68578;SHT31;61668;45.388;11.784;2023-04-30T00:24:16;14.96;80.48
68578;SHT31;61668;45.388;11.784;2023-04-30T00:26:42;14.97;80.50
68578;SHT31;61668;45.388;11.784;2023-04-30T00:29:08;14.98;80.51
68578;SHT31;61668;45.388;11.784;2023-04-30T00:31:35;14.99;80.54
68578;SHT31;61668;45.388;11.784;2023-04-30T00:34:00;15.00;80.67
68578;SHT31;61668;45.388;11.784;2023-04-30T00:36:26;15.01;80.70
68578;SHT31;61668;45.388;11.784;2023-04-30T00:38:52;15.01;80.73
68578;SHT31;61668;45.388;11.784;2023-04-30T00:41:17;15.02;80.80
68578;SHT31;61668;45.388;11.784;2023-04-30T00:43:44;15.03;80.79
68578;SHT31;61668;45.388;11.784;2023-04-30T00:46:11;15.03;80.83
68578;SHT31;61668;45.388;11.784;2023-04-30T00:48:37;15.03;80.90
68578;SHT31;61668;45.388;11.784;2023-04-30T00:51:03;15.03;80.81
68578;SHT31;61668;45.388;11.784;2023-04-30T00:53:30;15.02;80.84
68578;SHT31;61668;45.388;11.784;2023-04-30T00:55:56;15.01;80.80
68578;SHT31;61668;45.388;11.784;2023-04-30T00:58:22;14.99;80.80
68578;SHT31;61668;45.388;11.784;2023-04-30T01:00:47;14.97;80.80
68578;SHT31;61668;45.388;11.784;2023-04-30T01:03:14;14.96;80.77
68578;SHT31;61668;45.388;11.784;2023-04-30T01:05:40;14.91;80.73
68578;SHT31;61668;45.388;11.784;2023-04-30T01:08:06;14.88;80.72
68578;SHT31;61668;45.388;11.784;2023-04-30T01:10:40;14.85;80.70
68578;SHT31;61668;45.388;11.784;2023-04-30T01:13:21;14.83;80.74
68578;SHT31;61668;45.388;11.784;2023-04-30T01:15:58;14.81;80.80
68578;SHT31;61668;45.388;11.784;2023-04-30T01:18:33;14.80;80.87
68578;SHT31;61668;45.388;11.784;2023-04-30T01:21:23;14.78;80.98
68578;SHT31;61668;45.388;11.784;2023-04-30T01:23:54;14.77;81.05
68578;SHT31;61668;45.388;11.784;2023-04-30T01:29:49;14.76;81.38
68578;SHT31;61668;45.388;11.784;2023-04-30T01:32:17;14.77;81.53
68578;SHT31;61668;45.388;11.784;2023-04-30T01:34:43;14.75;81.72
68578;SHT31;61668;45.388;11.784;2023-04-30T01:40:43;14.70;81.74
68578;SHT31;61668;45.388;11.784;2023-04-30T01:51:45;14.65;81.84
68578;SHT31;61668;45.388;11.784;2023-04-30T01:54:20;14.65;81.90
68578;SHT31;61668;45.388;11.784;2023-04-30T01:57:12;14.64;81.90
68578;SHT31;61668;45.388;11.784;2023-04-30T01:59:48;14.63;81.85
68578;SHT31;61668;45.388;11.784;2023-04-30T02:02:14;14.64;81.89
68578;SHT31;61668;45.388;11.784;2023-04-30T02:04:40;14.63;81.89
68578;SHT31;61668;45.388;11.784;2023-04-30T02:07:05;14.63;81.89
68578;SHT31;61668;45.388;11.784;2023-04-30T02:09:31;14.64;81.90
68578;SHT31;61668;45.388;11.784;2023-04-30T02:11:57;14.63;81.91
68578;SHT31;61668;45.388;11.784;2023-04-30T02:14:22;14.62;81.90
68578;SHT31;61668;45.388;11.784;2023-04-30T02:16:49;14.61;81.91
68578;SHT31;61668;45.388;11.784;2023-04-30T02:19:14;14.60;81.84
68578;SHT31;61668;45.388;11.784;2023-04-30T02:21:40;14.57;81.70
68578;SHT31;61668;45.388;11.784;2023-04-30T02:24:06;14.53;81.61
68578;SHT31;61668;45.388;11.784;2023-04-30T02:26:31;14.48;81.70
68578;SHT31;61668;45.388;11.784;2023-04-30T02:28:57;14.45;81.80
68578;SHT31;61668;45.388;11.784;2023-04-30T02:31:23;14.40;81.82
68578;SHT31;61668;45.388;11.784;2023-04-30T02:33:49;14.38;81.90
68578;SHT31;61668;45.388;11.784;2023-04-30T02:36:14;14.34;81.90
68578;SHT31;61668;45.388;11.784;2023-04-30T02:38:40;14.31;81.90
68578;SHT31;61668;45.388;11.784;2023-04-30T02:41:06;14.29;81.93
68578;SHT31;61668;45.388;11.784;2023-04-30T02:43:31;14.27;82.03
68578;SHT31;61668;45.388;11.784;2023-04-30T02:45:57;14.24;82.11
68578;SHT31;61668;45.388;11.784;2023-04-30T02:48:23;14.21;82.20
68578;SHT31;61668;45.388;11.784;2023-04-30T02:50:48;14.18;82.21
68578;SHT31;61668;45.388;11.784;2023-04-30T02:53:14;14.14;82.20
68578;SHT31;61668;45.388;11.784;2023-04-30T02:55:40;14.08;82.19
68578;SHT31;61668;45.388;11.784;2023-04-30T02:58:06;14.03;82.14
68578;SHT31;61668;45.388;11.784;2023-04-30T03:00:31;13.97;82.20
68578;SHT31;61668;45.388;11.784;2023-04-30T03:02:57;13.92;82.28
68578;SHT31;61668;45.388;11.784;2023-04-30T03:05:23;13.87;82.32
68578;SHT31;61668;45.388;11.784;2023-04-30T03:07:49;13.84;82.45
68578;SHT31;61668;45.388;11.784;2023-04-30T03:10:14;13.81;82.54
68578;SHT31;61668;45.388;11.784;2023-04-30T03:12:40;13.77;82.68
68578;SHT31;61668;45.388;11.784;2023-04-30T03:15:06;13.75;82.79
68578;SHT31;61668;45.388;11.784;2023-04-30T03:17:33;13.75;82.81
68578;SHT31;61668;45.388;11.784;2023-04-30T03:19:59;13.74;82.85
68578;SHT31;61668;45.388;11.784;2023-04-30T03:22:24;13.72;83.05
68578;SHT31;61668;45.388;11.784;2023-04-30T03:24:50;13.73;83.20
68578;SHT31;61668;45.388;11.784;2023-04-30T03:27:16;13.73;83.23
68578;SHT31;61668;45.388;11.784;2023-04-30T03:29:42;13.73;83.30
68578;SHT31;61668;45.388;11.784;2023-04-30T03:32:08;13.71;83.36
68578;SHT31;61668;45.388;11.784;2023-04-30T03:34:33;13.72;83.42
68578;SHT31;61668;45.388;11.784;2023-04-30T03:36:59;13.70;83.57
68578;SHT31;61668;45.388;11.784;2023-04-30T03:39:26;13.70;83.72
68578;SHT31;61668;45.388;11.784;2023-04-30T03:41:52;13.71;83.92
68578;SHT31;61668;45.388;11.784;2023-04-30T03:44:17;13.69;83.98
68578;SHT31;61668;45.388;11.784;2023-04-30T03:46:43;13.67;83.93
68578;SHT31;61668;45.388;11.784;2023-04-30T03:49:09;13.66;83.86
68578;SHT31;61668;45.388;11.784;2023-04-30T03:51:35;13.66;83.86
68578;SHT31;61668;45.388;11.784;2023-04-30T03:54:05;13.66;83.87
68578;SHT31;61668;45.388;11.784;2023-04-30T03:56:31;13.66;83.80
68578;SHT31;61668;45.388;11.784;2023-04-30T03:58:58;13.65;83.81
68578;SHT31;61668;45.388;11.784;2023-04-30T04:01:24;13.66;83.87
68578;SHT31;61668;45.388;11.784;2023-04-30T04:03:50;13.66;83.90
68578;SHT31;61668;45.388;11.784;2023-04-30T04:06:16;13.66;83.90
68578;SHT31;61668;45.388;11.784;2023-04-30T04:08:42;13.67;83.93
68578;SHT31;61668;45.388;11.784;2023-04-30T04:11:08;13.67;83.91
68578;SHT31;61668;45.388;11.784;2023-04-30T04:13:35;13.68;83.92
68578;SHT31;61668;45.388;11.784;2023-04-30T04:16:01;13.69;83.87
68578;SHT31;61668;45.388;11.784;2023-04-30T04:18:26;13.70;83.77
68578;SHT31;61668;45.388;11.784;2023-04-30T04:20:53;13.71;83.70
68578;SHT31;61668;45.388;11.784;2023-04-30T04:23:20;13.71;83.62
68578;SHT31;61668;45.388;11.784;2023-04-30T04:25:47;13.72;83.57
68578;SHT31;61668;45.388;11.784;2023-04-30T04:28:16;13.72;83.56
68578;SHT31;61668;45.388;11.784;2023-04-30T04:30:42;13.70;83.59
68578;SHT31;61668;45.388;11.784;2023-04-30T04:33:08;13.72;83.60
68578;SHT31;61668;45.388;11.784;2023-04-30T04:35:35;13.71;83.52
68578;SHT31;61668;45.388;11.784;2023-04-30T04:38:02;13.71;83.45
68578;SHT31;61668;45.388;11.784;2023-04-30T04:40:28;13.71;83.50
68578;SHT31;61668;45.388;11.784;2023-04-30T04:42:54;13.71;83.51
68578;SHT31;61668;45.388;11.784;2023-04-30T04:45:20;13.72;83.56
68578;SHT31;61668;45.388;11.784;2023-04-30T04:47:46;13.73;83.60
68578;SHT31;61668;45.388;11.784;2023-04-30T04:50:12;13.77;83.62
68578;SHT31;61668;45.388;11.784;2023-04-30T04:52:38;13.79;83.66
68578;SHT31;61668;45.388;11.784;2023-04-30T04:55:05;13.82;83.75
68578;SHT31;61668;45.388;11.784;2023-04-30T04:57:31;13.86;83.88
68578;SHT31;61668;45.388;11.784;2023-04-30T04:59:57;13.90;84.15
68578;SHT31;61668;45.388;11.784;2023-04-30T05:02:22;13.93;84.26
68578;SHT31;61668;45.388;11.784;2023-04-30T05:04:48;13.95;84.36
68578;SHT31;61668;45.388;11.784;2023-04-30T05:07:18;13.98;84.41
68578;SHT31;61668;45.388;11.784;2023-04-30T05:09:44;14.00;84.50
68578;SHT31;61668;45.388;11.784;2023-04-30T05:12:11;14.02;84.63
68578;SHT31;61668;45.388;11.784;2023-04-30T05:14:38;14.04;84.68
68578;SHT31;61668;45.388;11.784;2023-04-30T05:17:04;14.06;84.70
68578;SHT31;61668;45.388;11.784;2023-04-30T05:19:31;14.09;84.75
68578;SHT31;61668;45.388;11.784;2023-04-30T05:21:57;14.14;84.81
68578;SHT31;61668;45.388;11.784;2023-04-30T05:24:24;14.18;84.88
68578;SHT31;61668;45.388;11.784;2023-04-30T05:26:50;14.22;84.82
68578;SHT31;61668;45.388;11.784;2023-04-30T05:29:15;14.26;84.78
68578;SHT31;61668;45.388;11.784;2023-04-30T05:31:41;14.29;84.72
68578;SHT31;61668;45.388;11.784;2023-04-30T05:34:07;14.33;84.80
68578;SHT31;61668;45.388;11.784;2023-04-30T05:36:32;14.34;84.80
68578;SHT31;61668;45.388;11.784;2023-04-30T05:38:58;14.36;84.83
68578;SHT31;61668;45.388;11.784;2023-04-30T05:41:24;14.37;84.81
68578;SHT31;61668;45.388;11.784;2023-04-30T05:43:49;14.39;84.87
68578;SHT31;61668;45.388;11.784;2023-04-30T05:46:15;14.41;84.89
68578;SHT31;61668;45.388;11.784;2023-04-30T05:48:41;14.42;84.81
68578;SHT31;61668;45.388;11.784;2023-04-30T05:51:06;14.43;84.86
68578;SHT31;61668;45.388;11.784;2023-04-30T05:53:32;14.45;84.90
68578;SHT31;61668;45.388;11.784;2023-04-30T05:55:58;14.47;84.95
68578;SHT31;61668;45.388;11.784;2023-04-30T05:58:24;14.49;85.02
68578;SHT31;61668;45.388;11.784;2023-04-30T06:00:50;14.52;85.06
68578;SHT31;61668;45.388;11.784;2023-04-30T06:03:17;14.53;84.93
68578;SHT31;61668;45.388;11.784;2023-04-30T06:05:44;14.56;84.91
68578;SHT31;61668;45.388;11.784;2023-04-30T06:08:11;14.59;84.90
68578;SHT31;61668;45.388;11.784;2023-04-30T06:10:37;14.62;84.91
68578;SHT31;61668;45.388;11.784;2023-04-30T06:13:04;14.64;84.89
68578;SHT31;61668;45.388;11.784;2023-04-30T06:15:30;14.65;84.90
68578;SHT31;61668;45.388;11.784;2023-04-30T06:17:56;14.67;85.03
68578;SHT31;61668;45.388;11.784;2023-04-30T06:20:22;14.70;85.10
68578;SHT31;61668;45.388;11.784;2023-04-30T06:22:48;14.72;85.16
68578;SHT31;61668;45.388;11.784;2023-04-30T06:25:14;14.75;85.23
68578;SHT31;61668;45.388;11.784;2023-04-30T06:27:40;14.75;85.22
68578;SHT31;61668;45.388;11.784;2023-04-30T06:30:06;14.78;85.29
68578;SHT31;61668;45.388;11.784;2023-04-30T06:32:33;14.79;85.30
68578;SHT31;61668;45.388;11.784;2023-04-30T06:34:59;14.81;85.21
68578;SHT31;61668;45.388;11.784;2023-04-30T06:37:24;14.82;85.14
68578;SHT31;61668;45.388;11.784;2023-04-30T06:39:50;14.84;85.02
68578;SHT31;61668;45.388;11.784;2023-04-30T06:42:16;14.84;84.88
68578;SHT31;61668;45.388;11.784;2023-04-30T06:44:43;14.85;84.81
68578;SHT31;61668;45.388;11.784;2023-04-30T06:47:10;14.87;84.80
68578;SHT31;61668;45.388;11.784;2023-04-30T06:49:35;14.89;84.80
68578;SHT31;61668;45.388;11.784;2023-04-30T06:52:01;14.91;84.74
68578;SHT31;61668;45.388;11.784;2023-04-30T06:54:27;14.91;84.70
68578;SHT31;61668;45.388;11.784;2023-04-30T06:56:53;14.93;84.71
68578;SHT31;61668;45.388;11.784;2023-04-30T06:59:18;14.95;84.74
68578;SHT31;61668;45.388;11.784;2023-04-30T07:01:44;14.96;84.71
68578;SHT31;61668;45.388;11.784;2023-04-30T07:04:10;15.01;84.80
68578;SHT31;61668;45.388;11.784;2023-04-30T07:06:36;15.05;84.87
68578;SHT31;61668;45.388;11.784;2023-04-30T07:09:02;15.10;84.86
68578;SHT31;61668;45.388;11.784;2023-04-30T07:11:28;15.15;84.74
68578;SHT31;61668;45.388;11.784;2023-04-30T07:13:53;15.20;84.63
68578;SHT31;61668;45.388;11.784;2023-04-30T07:16:19;15.26;84.49
68578;SHT31;61668;45.388;11.784;2023-04-30T07:18:49;15.30;84.50
68578;SHT31;61668;45.388;11.784;2023-04-30T07:21:14;15.35;84.68
68578;SHT31;61668;45.388;11.784;2023-04-30T07:23:40;15.40;84.66
68578;SHT31;61668;45.388;11.784;2023-04-30T07:26:08;15.43;84.60
68578;SHT31;61668;45.388;11.784;2023-04-30T07:28:34;15.48;84.59
68578;SHT31;61668;45.388;11.784;2023-04-30T07:30:59;15.53;84.51
68578;SHT31;61668;45.388;11.784;2023-04-30T07:33:26;15.59;84.58
68578;SHT31;61668;45.388;11.784;2023-04-30T07:35:52;15.63;84.50
68578;SHT31;61668;45.388;11.784;2023-04-30T07:38:20;15.70;84.61
68578;SHT31;61668;45.388;11.784;2023-04-30T07:40:45;15.77;84.64
68578;SHT31;61668;45.388;11.784;2023-04-30T07:43:11;15.84;84.67
68578;SHT31;61668;45.388;11.784;2023-04-30T07:45:37;15.91;84.39
68578;SHT31;61668;45.388;11.784;2023-04-30T07:48:02;15.96;84.30
68578;SHT31;61668;45.388;11.784;2023-04-30T07:50:29;16.04;84.08
68578;SHT31;61668;45.388;11.784;2023-04-30T07:52:58;16.10;83.93
68578;SHT31;61668;45.388;11.784;2023-04-30T07:55:25;16.18;84.06
68578;SHT31;61668;45.388;11.784;2023-04-30T07:57:51;16.28;84.09
68578;SHT31;61668;45.388;11.784;2023-04-30T08:00:17;16.37;84.09
68578;SHT31;61668;45.388;11.784;2023-04-30T08:02:43;16.45;83.98
68578;SHT31;61668;45.388;11.784;2023-04-30T08:05:10;16.53;83.82
68578;SHT31;61668;45.388;11.784;2023-04-30T08:07:36;16.63;83.57
68578;SHT31;61668;45.388;11.784;2023-04-30T08:10:01;16.72;83.37
68578;SHT31;61668;45.388;11.784;2023-04-30T08:12:27;16.83;83.26
68578;SHT31;61668;45.388;11.784;2023-04-30T08:15:03;16.94;83.27
68578;SHT31;61668;45.388;11.784;2023-04-30T08:17:30;17.06;82.88
68578;SHT31;61668;45.388;11.784;2023-04-30T08:19:57;17.16;82.35
68578;SHT31;61668;45.388;11.784;2023-04-30T08:22:23;17.25;81.90
68578;SHT31;61668;45.388;11.784;2023-04-30T08:24:48;17.31;81.08
68578;SHT31;61668;45.388;11.784;2023-04-30T08:27:15;17.36;80.42
68578;SHT31;61668;45.388;11.784;2023-04-30T08:29:41;17.43;79.56
68578;SHT31;61668;45.388;11.784;2023-04-30T08:32:07;17.49;79.32
68578;SHT31;61668;45.388;11.784;2023-04-30T08:34:33;17.54;78.88
68578;SHT31;61668;45.388;11.784;2023-04-30T08:36:59;17.60;78.90
68578;SHT31;61668;45.388;11.784;2023-04-30T08:39:25;17.66;78.39
68578;SHT31;61668;45.388;11.784;2023-04-30T08:41:55;17.73;78.13
68578;SHT31;61668;45.388;11.784;2023-04-30T08:44:22;17.78;77.56
68578;SHT31;61668;45.388;11.784;2023-04-30T08:46:50;17.86;77.72
68578;SHT31;61668;45.388;11.784;2023-04-30T08:49:23;17.98;77.36
68578;SHT31;61668;45.388;11.784;2023-04-30T08:51:49;18.08;76.74
68578;SHT31;61668;45.388;11.784;2023-04-30T08:54:16;18.18;76.53
68578;SHT31;61668;45.388;11.784;2023-04-30T08:56:46;18.29;76.63
68578;SHT31;61668;45.388;11.784;2023-04-30T08:59:12;18.36;76.03
68578;SHT31;61668;45.388;11.784;2023-04-30T09:01:38;18.41;76.23
68578;SHT31;61668;45.388;11.784;2023-04-30T09:04:05;18.47;75.95
68578;SHT31;61668;45.388;11.784;2023-04-30T09:06:32;18.54;75.81
68578;SHT31;61668;45.388;11.784;2023-04-30T09:08:58;18.63;75.79
68578;SHT31;61668;45.388;11.784;2023-04-30T09:11:35;18.70;75.14
68578;SHT31;61668;45.388;11.784;2023-04-30T09:14:01;18.75;74.97
68578;SHT31;61668;45.388;11.784;2023-04-30T09:16:29;18.78;74.14
68578;SHT31;61668;45.388;11.784;2023-04-30T09:19:22;18.80;74.11
68578;SHT31;61668;45.388;11.784;2023-04-30T09:21:49;18.85;74.00
68578;SHT31;61668;45.388;11.784;2023-04-30T09:24:15;18.89;73.65
68578;SHT31;61668;45.388;11.784;2023-04-30T09:29:18;18.94;72.95
68578;SHT31;61668;45.388;11.784;2023-04-30T09:31:45;18.97;72.92
68578;SHT31;61668;45.388;11.784;2023-04-30T09:34:11;18.99;72.77
68578;SHT31;61668;45.388;11.784;2023-04-30T09:36:50;19.00;72.56
68578;SHT31;61668;45.388;11.784;2023-04-30T09:39:20;19.03;72.55
68578;SHT31;61668;45.388;11.784;2023-04-30T09:41:46;19.08;72.94
68578;SHT31;61668;45.388;11.784;2023-04-30T09:44:35;19.18;73.51
68578;SHT31;61668;45.388;11.784;2023-04-30T09:47:01;19.33;73.07
68578;SHT31;61668;45.388;11.784;2023-04-30T09:49:27;19.42;72.40
68578;SHT31;61668;45.388;11.784;2023-04-30T09:51:57;19.52;71.69
68578;SHT31;61668;45.388;11.784;2023-04-30T09:54:28;19.58;70.41
68578;SHT31;61668;45.388;11.784;2023-04-30T09:56:57;19.63;70.21
68578;SHT31;61668;45.388;11.784;2023-04-30T09:59:29;19.71;69.99
68578;SHT31;61668;45.388;11.784;2023-04-30T10:02:00;19.80;70.14
68578;SHT31;61668;45.388;11.784;2023-04-30T10:04:32;19.90;70.29
68578;SHT31;61668;45.388;11.784;2023-04-30T10:07:04;19.97;70.05
68578;SHT31;61668;45.388;11.784;2023-04-30T10:09:38;19.98;69.35
68578;SHT31;61668;45.388;11.784;2023-04-30T10:12:12;19.99;68.83
68578;SHT31;61668;45.388;11.784;2023-04-30T10:14:44;20.03;68.66
68578;SHT31;61668;45.388;11.784;2023-04-30T10:17:29;20.04;67.94
68578;SHT31;61668;45.388;11.784;2023-04-30T10:20:01;20.04;67.92
68578;SHT31;61668;45.388;11.784;2023-04-30T10:22:33;20.08;68.15
68578;SHT31;61668;45.388;11.784;2023-04-30T10:25:00;20.11;68.21
68578;SHT31;61668;45.388;11.784;2023-04-30T10:27:27;20.17;68.27
68578;SHT31;61668;45.388;11.784;2023-04-30T10:29:54;20.23;68.04
68578;SHT31;61668;45.388;11.784;2023-04-30T10:32:21;20.32;67.61
68578;SHT31;61668;45.388;11.784;2023-04-30T10:40:12;20.39;66.77
68578;SHT31;61668;45.388;11.784;2023-04-30T10:42:44;20.40;66.34
68578;SHT31;61668;45.388;11.784;2023-04-30T10:45:17;20.40;66.28
68578;SHT31;61668;45.388;11.784;2023-04-30T10:47:44;20.41;66.51
68578;SHT31;61668;45.388;11.784;2023-04-30T10:50:10;20.44;66.59
68578;SHT31;61668;45.388;11.784;2023-04-30T10:52:37;20.48;66.94
68578;SHT31;61668;45.388;11.784;2023-04-30T10:55:04;20.48;66.70
68578;SHT31;61668;45.388;11.784;2023-04-30T10:57:41;20.50;66.63
68578;SHT31;61668;45.388;11.784;2023-04-30T11:02:43;20.51;66.11
68578;SHT31;61668;45.388;11.784;2023-04-30T11:07:46;20.60;66.30
68578;SHT31;61668;45.388;11.784;2023-04-30T11:10:14;20.65;66.22
68578;SHT31;61668;45.388;11.784;2023-04-30T11:12:41;20.66;66.06
68578;SHT31;61668;45.388;11.784;2023-04-30T11:15:14;20.69;66.19
68578;SHT31;61668;45.388;11.784;2023-04-30T11:17:43;20.73;66.09
68578;SHT31;61668;45.388;11.784;2023-04-30T11:20:13;20.77;65.59
68578;SHT31;61668;45.388;11.784;2023-04-30T11:22:45;20.83;65.97
68578;SHT31;61668;45.388;11.784;2023-04-30T11:25:11;20.95;66.01
68578;SHT31;61668;45.388;11.784;2023-04-30T11:27:41;21.04;65.46
68578;SHT31;61668;45.388;11.784;2023-04-30T11:30:12;21.14;65.44
68578;SHT31;61668;45.388;11.784;2023-04-30T11:32:43;21.23;65.03
68578;SHT31;61668;45.388;11.784;2023-04-30T11:35:11;21.32;65.10
68578;SHT31;61668;45.388;11.784;2023-04-30T11:37:40;21.39;64.72
68578;SHT31;61668;45.388;11.784;2023-04-30T11:40:12;21.43;64.07
68578;SHT31;61668;45.388;11.784;2023-04-30T11:42:40;21.46;63.80
68578;SHT31;61668;45.388;11.784;2023-04-30T11:45:12;21.55;64.02
68578;SHT31;61668;45.388;11.784;2023-04-30T11:47:48;21.68;63.80
68578;SHT31;61668;45.388;11.784;2023-04-30T11:50:16;21.83;63.43
68578;SHT31;61668;45.388;11.784;2023-04-30T11:52:49;21.98;62.89
68578;SHT31;61668;45.388;11.784;2023-04-30T11:55:17;22.11;62.27
68578;SHT31;61668;45.388;11.784;2023-04-30T11:57:47;22.24;62.28
68578;SHT31;61668;45.388;11.784;2023-04-30T12:00:16;22.41;62.83
68578;SHT31;61668;45.388;11.784;2023-04-30T12:02:44;22.61;62.10
68578;SHT31;61668;45.388;11.784;2023-04-30T12:05:17;22.76;61.18
68578;SHT31;61668;45.388;11.784;2023-04-30T12:10:33;23.03;61.90
68578;SHT31;61668;45.388;11.784;2023-04-30T12:13:02;23.17;61.23
68578;SHT31;61668;45.388;11.784;2023-04-30T12:15:27;23.40;61.01
68578;SHT31;61668;45.388;11.784;2023-04-30T12:17:54;23.59;60.46
68578;SHT31;61668;45.388;11.784;2023-04-30T12:20:22;23.74;59.98
68578;SHT31;61668;45.388;11.784;2023-04-30T12:22:55;23.88;59.42
68578;SHT31;61668;45.388;11.784;2023-04-30T12:25:22;24.06;58.96
68578;SHT31;61668;45.388;11.784;2023-04-30T12:27:49;24.26;58.34
68578;SHT31;61668;45.388;11.784;2023-04-30T12:30:21;24.42;58.21
68578;SHT31;61668;45.388;11.784;2023-04-30T12:32:51;24.48;57.74
68578;SHT31;61668;45.388;11.784;2023-04-30T12:35:19;24.41;57.69
68578;SHT31;61668;45.388;11.784;2023-04-30T12:37:47;24.34;57.87
68578;SHT31;61668;45.388;11.784;2023-04-30T12:40:17;24.31;57.94
68578;SHT31;61668;45.388;11.784;2023-04-30T12:42:49;24.25;56.59
68578;SHT31;61668;45.388;11.784;2023-04-30T12:48:27;24.18;53.61
68578;SHT31;61668;45.388;11.784;2023-04-30T12:51:00;24.23;54.09
68578;SHT31;61668;45.388;11.784;2023-04-30T12:53:27;24.26;50.75
68578;SHT31;61668;45.388;11.784;2023-04-30T12:56:13;24.21;49.35
68578;SHT31;61668;45.388;11.784;2023-04-30T12:58:43;24.10;48.00
68578;SHT31;61668;45.388;11.784;2023-04-30T13:01:12;24.00;48.33
68578;SHT31;61668;45.388;11.784;2023-04-30T13:03:42;23.90;48.27
68578;SHT31;61668;45.388;11.784;2023-04-30T13:06:08;23.79;47.62
68578;SHT31;61668;45.388;11.784;2023-04-30T13:08:34;23.67;48.18
68578;SHT31;61668;45.388;11.784;2023-04-30T13:11:01;23.57;48.03
68578;SHT31;61668;45.388;11.784;2023-04-30T13:13:27;23.49;48.21
68578;SHT31;61668;45.388;11.784;2023-04-30T13:15:53;23.39;48.44
68578;SHT31;61668;45.388;11.784;2023-04-30T13:18:19;23.34;48.75
68578;SHT31;61668;45.388;11.784;2023-04-30T13:20:45;23.32;48.94
68578;SHT31;61668;45.388;11.784;2023-04-30T13:23:11;23.33;49.24
68578;SHT31;61668;45.388;11.784;2023-04-30T13:25:38;23.31;49.01
68578;SHT31;61668;45.388;11.784;2023-04-30T13:28:06;23.26;48.74
68578;SHT31;61668;45.388;11.784;2023-04-30T13:30:32;23.26;49.10
68578;SHT31;61668;45.388;11.784;2023-04-30T13:32:58;23.28;49.11
68578;SHT31;61668;45.388;11.784;2023-04-30T13:35:24;23.29;49.30
68578;SHT31;61668;45.388;11.784;2023-04-30T13:37:50;23.32;49.24
68578;SHT31;61668;45.388;11.784;2023-04-30T13:40:17;23.40;49.30
68578;SHT31;61668;45.388;11.784;2023-04-30T13:42:44;23.47;48.80
68578;SHT31;61668;45.388;11.784;2023-04-30T13:45:11;23.57;49.17
68578;SHT31;61668;45.388;11.784;2023-04-30T13:47:37;23.66;48.70
68578;SHT31;61668;45.388;11.784;2023-04-30T13:50:03;23.73;48.60
68578;SHT31;61668;45.388;11.784;2023-04-30T13:52:30;23.77;48.32
68578;SHT31;61668;45.388;11.784;2023-04-30T13:54:56;23.82;47.83
68578;SHT31;61668;45.388;11.784;2023-04-30T13:57:25;23.86;47.81
68578;SHT31;61668;45.388;11.784;2023-04-30T13:59:54;23.88;47.57
68578;SHT31;61668;45.388;11.784;2023-04-30T14:02:19;23.86;46.59
68578;SHT31;61668;45.388;11.784;2023-04-30T14:04:45;23.79;46.26
68578;SHT31;61668;45.388;11.784;2023-04-30T14:07:11;23.69;46.04
68578;SHT31;61668;45.388;11.784;2023-04-30T14:09:37;23.63;46.51
68578;SHT31;61668;45.388;11.784;2023-04-30T14:12:03;23.60;46.37
68578;SHT31;61668;45.388;11.784;2023-04-30T14:14:29;23.58;46.18
68578;SHT31;61668;45.388;11.784;2023-04-30T14:16:55;23.55;46.25
68578;SHT31;61668;45.388;11.784;2023-04-30T14:19:20;23.53;46.64
68578;SHT31;61668;45.388;11.784;2023-04-30T14:21:47;23.55;46.60
68578;SHT31;61668;45.388;11.784;2023-04-30T14:24:13;23.62;46.05
68578;SHT31;61668;45.388;11.784;2023-04-30T14:26:42;23.69;46.39
68578;SHT31;61668;45.388;11.784;2023-04-30T14:29:09;23.83;46.14
68578;SHT31;61668;45.388;11.784;2023-04-30T14:31:37;23.95;46.14
68578;SHT31;61668;45.388;11.784;2023-04-30T14:34:02;24.00;44.89
68578;SHT31;61668;45.388;11.784;2023-04-30T14:36:28;24.01;45.65
68578;SHT31;61668;45.388;11.784;2023-04-30T14:38:54;24.03;46.40
68578;SHT31;61668;45.388;11.784;2023-04-30T14:41:20;24.03;46.12
68578;SHT31;61668;45.388;11.784;2023-04-30T14:43:46;24.01;46.07
68578;SHT31;61668;45.388;11.784;2023-04-30T14:46:11;23.98;45.68
68578;SHT31;61668;45.388;11.784;2023-04-30T14:48:38;23.94;45.94
68578;SHT31;61668;45.388;11.784;2023-04-30T14:51:03;23.88;45.84
68578;SHT31;61668;45.388;11.784;2023-04-30T14:53:29;23.84;46.30
68578;SHT31;61668;45.388;11.784;2023-04-30T14:55:55;23.84;46.35
68578;SHT31;61668;45.388;11.784;2023-04-30T14:58:21;23.80;46.50
68578;SHT31;61668;45.388;11.784;2023-04-30T15:00:48;23.72;46.45
68578;SHT31;61668;45.388;11.784;2023-04-30T15:03:14;23.65;46.93
68578;SHT31;61668;45.388;11.784;2023-04-30T15:05:40;23.54;47.06
68578;SHT31;61668;45.388;11.784;2023-04-30T15:08:06;23.48;47.17
68578;SHT31;61668;45.388;11.784;2023-04-30T15:10:32;23.47;47.77
68578;SHT31;61668;45.388;11.784;2023-04-30T15:12:58;23.47;47.86
68578;SHT31;61668;45.388;11.784;2023-04-30T15:15:23;23.49;47.93
68578;SHT31;61668;45.388;11.784;2023-04-30T15:17:53;23.50;48.21
68578;SHT31;61668;45.388;11.784;2023-04-30T15:20:21;23.49;48.04
68578;SHT31;61668;45.388;11.784;2023-04-30T15:22:47;23.43;47.68
68578;SHT31;61668;45.388;11.784;2023-04-30T15:25:15;23.34;47.83
68578;SHT31;61668;45.388;11.784;2023-04-30T15:27:42;23.26;47.80
68578;SHT31;61668;45.388;11.784;2023-04-30T15:30:08;23.20;47.67
68578;SHT31;61668;45.388;11.784;2023-04-30T15:32:35;23.15;47.90
68578;SHT31;61668;45.388;11.784;2023-04-30T15:35:00;23.10;48.22
68578;SHT31;61668;45.388;11.784;2023-04-30T15:37:26;23.07;48.80
68578;SHT31;61668;45.388;11.784;2023-04-30T15:39:52;23.05;48.43
68578;SHT31;61668;45.388;11.784;2023-04-30T15:42:18;22.98;48.30
68578;SHT31;61668;45.388;11.784;2023-04-30T15:44:43;22.95;48.29
68578;SHT31;61668;45.388;11.784;2023-04-30T15:47:09;22.92;48.33
68578;SHT31;61668;45.388;11.784;2023-04-30T15:49:36;22.92;48.54
68578;SHT31;61668;45.388;11.784;2023-04-30T15:52:02;22.88;48.38